Time;durP1;ratioP1;P1;durP2;ratioP2;P2;SDS_P1;SDS_P2;PMS_P1;PMS_P2;Temp;Humidity;BMP_temperature;BMP_pressure;BME280_temperature;BME280_humidity;BME280_pressure;Samples;Min_cycle;Max_cycle;Signal;HPM_P1;HPM_P2
2022/04/27 00:01:53;;;;;;;4.85;2.90;;;;;;;14.11;61.54;94577.94;4160124;28;20065;-48
2022/04/27 00:03:54;;;;;;;6.20;2.95;;;;;;;14.17;61.59;94584.25;4159399;28;20107;-53
2022/04/27 00:05:56;;;;;;;5.05;3.08;;;;;;;14.21;61.36;94575.00;4159597;28;20158;-50
2022/04/27 00:07:58;;;;;;;7.88;3.10;;;;;;;14.18;61.49;94583.28;4158867;28;20438;-54
2022/04/27 00:10:00;;;;;;;4.10;2.78;;;;;;;14.13;61.65;94580.34;4159616;28;20076;-49
2022/04/27 00:12:02;;;;;;;4.63;3.03;;;;;;;13.97;61.91;94585.84;4158490;28;20049;-54
2022/04/27 00:14:04;;;;;;;4.80;2.80;;;;;;;13.77;62.53;94586.38;4156206;28;20049;-54
2022/04/27 00:16:06;;;;;;;7.80;3.13;;;;;;;13.62;63.06;94585.56;4156058;28;20061;-56
2022/04/27 00:18:08;;;;;;;7.53;2.80;;;;;;;13.59;63.11;94588.53;4159348;28;20881;-56
2022/04/27 00:20:10;;;;;;;6.07;3.30;;;;;;;13.59;63.25;94586.72;4158242;28;20049;-53
2022/04/27 00:22:13;;;;;;;9.02;3.72;;;;;;;13.25;64.48;94587.19;4159884;28;20553;-52
2022/04/27 00:24:15;;;;;;;;;;;;;;;13.22;64.70;94590.19;4158022;28;20156;-53
2022/04/27 00:26:17;;;;;;;4.45;2.85;;;;;;;13.29;64.51;94589.34;4159509;28;19921;-54
2022/04/27 00:28:19;;;;;;;4.93;3.60;;;;;;;13.35;64.22;94585.16;4159537;28;20049;-54
2022/04/27 00:30:20;;;;;;;6.43;3.70;;;;;;;13.38;64.12;94584.81;4159600;28;20054;-54
2022/04/27 00:32:22;;;;;;;9.25;4.00;;;;;;;13.41;63.67;94591.53;4159940;28;20050;-49
2022/04/27 00:34:25;;;;;;;6.22;3.55;;;;;;;13.11;64.64;94586.97;4159434;28;20053;-51
2022/04/27 00:36:27;;;;;;;4.35;3.35;;;;;;;12.96;65.19;94588.75;4158009;28;20046;-53
2022/04/27 00:38:29;;;;;;;4.97;3.40;;;;;;;13.00;65.57;94590.03;4158112;28;20436;-54
2022/04/27 00:40:30;;;;;;;4.72;3.45;;;;;;;13.06;65.21;94591.16;4159243;28;20091;-55
2022/04/27 00:42:32;;;;;;;9.70;3.70;;;;;;;13.10;64.87;94590.59;4157719;28;20057;-52
2022/04/27 00:44:34;;;;;;;5.72;3.72;;;;;;;13.17;64.69;94592.53;4159316;28;20464;-55
2022/04/27 00:46:36;;;;;;;6.05;3.10;;;;;;;13.24;64.54;94590.81;4159462;28;20144;-53
2022/04/27 00:48:41;;;;;;;4.93;3.58;;;;;;;13.32;64.34;94588.16;4158907;28;20482;-54
2022/04/27 00:50:43;;;;;;;9.48;3.85;;;;;;;12.95;65.06;94591.53;4159302;28;20474;-53
2022/04/27 00:52:46;;;;;;;5.07;3.58;;;;;;;12.79;66.03;94592.47;4159119;28;20366;-55
2022/04/27 00:54:50;;;;;;;5.18;3.47;;;;;;;12.88;65.81;94589.63;4158412;28;20091;-56
2022/04/27 00:56:52;;;;;;;8.13;3.65;;;;;;;13.01;65.35;94583.75;4158767;28;20110;-56
2022/04/27 00:58:53;;;;;;;5.93;3.58;;;;;;;13.19;64.99;94587.91;4158962;28;20053;-55
2022/04/27 01:00:56;;;;;;;8.82;4.07;;;;;;;13.31;64.20;94597.03;4159242;28;20492;-60
2022/04/27 01:02:57;;;;;;;4.50;3.30;;;;;;;13.40;64.39;94595.13;4158926;28;20666;-53
2022/04/27 01:04:59;;;;;;;6.03;3.85;;;;;;;13.44;63.80;94592.00;4159094;28;20103;-53
2022/04/27 01:07:02;;;;;;;7.35;4.00;;;;;;;13.45;63.34;94596.25;4158883;28;20065;-50
2022/04/27 01:09:03;;;;;;;4.82;3.70;;;;;;;13.50;63.71;94591.25;4157572;28;20057;-53
2022/04/27 01:11:06;;;;;;;5.00;3.10;;;;;;;13.56;63.39;94583.66;4158937;28;20524;-53
2022/04/27 01:13:08;;;;;;;9.68;3.97;;;;;;;13.59;63.29;94585.91;4158060;28;20073;-52
2022/04/27 01:15:10;;;;;;;5.93;3.17;;;;;;;13.60;63.28;94588.38;4157734;28;20049;-56
2022/04/27 01:17:11;;;;;;;4.28;3.33;;;;;;;13.65;63.05;94586.00;4157113;28;20255;-52
2022/04/27 01:19:13;;;;;;;5.65;3.75;;;;;;;13.70;62.81;94585.47;4158703;28;20099;-54
2022/04/27 01:21:16;;;;;;;6.68;3.60;;;;;;;13.74;62.44;94581.47;4151865;28;20060;-54
2022/04/27 01:23:18;;;;;;;6.65;3.58;;;;;;;13.76;62.35;94582.09;4155836;28;20200;-51
2022/04/27 01:25:19;;;;;;;4.28;3.22;;;;;;;13.76;62.12;94586.56;4159232;28;20054;-54
2022/04/27 01:27:21;;;;;;;4.88;3.42;;;;;;;13.74;62.25;94586.72;4159098;28;20073;-51
2022/04/27 01:29:23;;;;;;;4.80;3.38;;;;;;;13.70;62.12;94588.09;4158906;28;20517;-57
2022/04/27 01:33:43;;;;;;;6.88;3.45;;;;;;;13.66;62.27;94584.22;4157180;28;20037;-51
2022/04/27 01:35:45;;;;;;;8.10;3.17;;;;;;;13.68;62.41;94580.41;4175733;28;20469;-53
2022/04/27 01:38:02;;;;;;;5.43;3.33;;;;;;;13.67;62.10;94581.38;4174805;28;20057;-49
2022/04/27 01:40:04;;;;;;;5.53;3.10;;;;;;;13.64;61.99;94589.66;4175414;28;20114;-53
2022/04/27 01:42:06;;;;;;;4.53;3.15;;;;;;;13.63;61.73;94590.63;4175255;28;20424;-51
2022/04/27 01:44:08;;;;;;;4.40;3.55;;;;;;;13.64;61.79;94586.22;4175287;28;20135;-55
2022/04/27 01:46:09;;;;;;;8.82;4.00;;;;;;;13.68;61.67;94583.03;4175419;28;20053;-52
2022/04/27 01:48:12;;;;;;;5.65;3.13;;;;;;;13.68;61.12;94576.91;4155118;28;20133;-54
2022/04/27 01:50:14;;;;;;;7.45;3.25;;;;;;;13.68;60.67;94577.75;4151753;28;20057;-53
2022/04/27 01:54:36;;;;;;;8.07;3.28;;;;;;;13.68;60.81;94583.03;4157650;28;20057;-54
2022/04/27 01:56:48;;;;;;;6.90;3.65;;;;;;;13.64;60.98;94580.94;4158686;28;20050;-53
2022/04/27 01:58:50;;;;;;;4.90;2.78;;;;;;;13.60;60.94;94579.66;4158845;28;20049;-55
2022/04/27 02:00:52;;;;;;;5.47;3.45;;;;;;;13.49;61.29;94578.28;4158777;28;20115;-55
2022/04/27 02:02:54;;;;;;;5.53;3.58;;;;;;;13.49;61.08;94575.66;4158393;28;20109;-53
2022/04/27 02:04:57;;;;;;;9.32;4.00;;;;;;;13.40;61.38;94574.09;4158732;28;20049;-53
2022/04/27 02:06:58;;;;;;;10.50;3.85;;;;;;;13.36;61.45;94573.66;4158220;28;20114;-52
2022/04/27 02:09:00;;;;;;;6.50;3.60;;;;;;;13.41;61.73;94575.72;4159560;28;20127;-53
2022/04/27 02:11:02;;;;;;;7.95;3.70;;;;;;;13.34;60.71;94573.00;4161695;28;20053;-55
2022/04/27 02:13:08;;;;;;;11.10;3.83;;;;;;;13.30;61.55;94577.00;4161653;28;20085;-54
2022/04/27 02:15:10;;;;;;;9.70;3.80;;;;;;;13.27;61.71;94574.66;4161730;28;20080;-55
2022/04/27 02:17:12;;;;;;;9.30;3.47;;;;;;;13.26;61.64;94579.13;4159894;28;20053;-53
2022/04/27 02:19:13;;;;;;;6.13;3.10;;;;;;;13.28;61.45;94579.78;4161043;28;20414;-55
2022/04/27 02:21:16;;;;;;;8.43;3.63;;;;;;;13.33;61.53;94579.25;4161269;28;20107;-56
2022/04/27 02:23:20;;;;;;;7.40;3.25;;;;;;;13.36;61.12;94580.69;4160137;28;20111;-54
2022/04/27 02:25:22;;;;;;;6.47;3.17;;;;;;;13.39;61.11;94581.16;4161492;28;20057;-54
2022/04/27 02:27:23;;;;;;;6.75;3.20;;;;;;;13.37;61.13;94580.53;4160655;28;20143;-54
2022/04/27 02:29:25;;;;;;;10.18;3.83;;;;;;;13.33;60.95;94584.50;4161309;28;20045;-50
2022/04/27 02:31:27;;;;;;;6.70;3.17;;;;;;;13.14;60.78;94582.34;4161059;28;20071;-53
2022/04/27 02:33:30;;;;;;;6.97;3.45;;;;;;;12.91;61.43;94580.56;4161085;28;20068;-53
2022/04/27 02:35:32;;;;;;;11.90;3.60;;;;;;;12.81;62.12;94579.97;4161345;28;20050;-53
2022/04/27 02:37:34;;;;;;;9.73;3.15;;;;;;;12.76;62.25;94585.78;4161529;28;20057;-57
2022/04/27 02:39:35;;;;;;;6.40;3.58;;;;;;;12.72;62.30;94583.66;4159722;28;20173;-53
2022/04/27 02:41:37;;;;;;;7.15;3.50;;;;;;;12.73;62.80;94585.28;4160966;28;20156;-52
2022/04/27 02:43:39;;;;;;;6.30;4.15;;;;;;;12.77;62.44;94581.31;4160947;28;20107;-53
2022/04/27 02:45:41;;;;;;;11.77;3.65;;;;;;;12.86;62.98;94577.63;4160029;28;20052;-54
2022/04/27 02:47:43;;;;;;;10.40;3.42;;;;;;;12.94;62.49;94587.28;4161134;28;20156;-53
2022/04/27 02:52:06;;;;;;;8.18;3.85;;;;;;;13.00;62.29;94579.50;4161479;28;20050;-53
2022/04/27 02:54:08;;;;;;;5.18;4.05;;;;;;;13.03;62.72;94578.34;4160082;28;20566;-53
2022/04/27 02:56:10;;;;;;;6.93;3.72;;;;;;;13.03;62.49;94579.13;4161051;28;20110;-52
2022/04/27 02:58:12;;;;;;;5.45;3.25;;;;;;;13.05;62.39;94585.03;4161158;28;20059;-52
2022/04/27 03:00:14;;;;;;;6.80;3.53;;;;;;;13.06;62.19;94581.44;4161122;28;20053;-54
2022/04/27 03:02:16;;;;;;;5.28;3.78;;;;;;;13.08;62.18;94583.91;4161114;28;20061;-52
2022/04/27 03:04:18;;;;;;;8.30;6.07;;;;;;;13.04;62.28;94570.28;4160551;28;20063;-51
2022/04/27 03:06:19;;;;;;;9.80;3.70;;;;;;;13.02;62.60;94580.16;4160765;28;20761;-53
2022/04/27 03:08:21;;;;;;;9.40;4.03;;;;;;;13.01;62.55;94575.88;4159623;28;20057;-51
2022/04/27 03:10:22;;;;;;;7.30;3.85;;;;;;;13.00;62.64;94576.88;4161141;28;20612;-53
2022/04/27 03:12:24;;;;;;;7.15;4.30;;;;;;;12.98;62.94;94580.69;4159413;28;20065;-50
2022/04/27 03:14:28;;;;;;;9.07;4.05;;;;;;;13.01;62.79;94580.31;4159482;28;20076;-56
2022/04/27 03:16:30;;;;;;;5.28;3.45;;;;;;;13.05;63.01;94586.88;4160551;28;20053;-53
2022/04/27 03:18:32;;;;;;;5.95;3.60;;;;;;;13.07;62.90;94580.41;4155681;28;20045;-55
2022/04/27 03:20:33;;;;;;;7.38;4.10;;;;;;;13.05;62.79;94585.03;4160020;28;20069;-53
2022/04/27 03:22:35;;;;;;;6.28;3.92;;;;;;;13.05;62.87;94586.88;4160570;28;20576;-50
2022/04/27 03:24:37;;;;;;;8.18;3.70;;;;;;;13.03;62.72;94589.66;4159463;28;20061;-53
2022/04/27 03:26:40;;;;;;;10.18;4.65;;;;;;;13.02;62.46;94588.03;4160527;28;20091;-54
2022/04/27 03:28:41;;;;;;;8.55;3.72;;;;;;;13.00;62.71;94594.47;4160755;28;20711;-51
2022/04/27 03:30:43;;;;;;;7.55;3.90;;;;;;;13.00;62.92;94597.09;4160857;28;20069;-52
2022/04/27 03:32:45;;;;;;;6.68;3.72;;;;;;;13.01;62.65;94596.91;4160629;28;20137;-53
2022/04/27 03:34:47;;;;;;;11.43;3.95;;;;;;;13.06;62.99;94599.84;4160488;28;20127;-53
2022/04/27 03:36:48;;;;;;;7.65;4.30;;;;;;;13.06;62.65;94599.84;4160633;28;20046;-56
2022/04/27 03:38:50;;;;;;;10.18;4.13;;;;;;;13.06;62.67;94607.72;4159363;28;20119;-53
2022/04/27 03:40:52;;;;;;;9.23;4.20;;;;;;;13.02;62.47;94603.00;4160424;28;20049;-54
2022/04/27 03:42:54;;;;;;;7.90;4.07;;;;;;;12.99;62.82;94604.19;4160337;28;20049;-52
2022/04/27 03:44:56;;;;;;;7.63;3.83;;;;;;;12.98;62.65;94610.41;4159861;28;20062;-53
2022/04/27 03:46:58;;;;;;;10.32;4.63;;;;;;;12.94;62.69;94611.75;4160551;28;20569;-54
2022/04/27 03:48:59;;;;;;;15.43;4.65;;;;;;;12.95;62.90;94612.56;4159899;28;20144;-51
2022/04/27 03:51:01;;;;;;;9.30;4.25;;;;;;;12.95;62.79;94613.41;4160651;28;20123;-55
2022/04/27 03:53:03;;;;;;;9.60;4.18;;;;;;;13.00;62.85;94621.56;4159233;28;20081;-53
2022/04/27 03:55:05;;;;;;;6.80;4.10;;;;;;;13.07;62.55;94613.81;4160568;28;20103;-53
2022/04/27 03:57:09;;;;;;;7.18;3.65;;;;;;;13.15;62.32;94616.38;4159123;28;20441;-52
2022/04/27 03:59:11;;;;;;;8.35;3.97;;;;;;;13.20;61.98;94619.28;4160478;28;20060;-54
2022/04/27 04:01:13;;;;;;;9.63;4.05;;;;;;;13.24;61.69;94620.56;4160549;28;20049;-54
2022/04/27 04:03:15;;;;;;;13.65;4.18;;;;;;;13.28;61.71;94626.31;4159805;28;20051;-55
2022/04/27 04:05:23;;;;;;;14.65;4.60;;;;;;;13.30;61.83;94625.16;4157464;28;20092;-52
2022/04/27 04:07:25;;;;;;;9.77;4.20;;;;;;;13.36;61.66;94636.78;4159898;28;20053;-55
2022/04/27 04:09:27;;;;;;;8.77;3.92;;;;;;;13.34;61.20;94633.50;4158523;28;20082;-53
2022/04/27 04:11:28;;;;;;;8.20;3.88;;;;;;;13.39;61.56;94640.88;4160467;28;20106;-56
2022/04/27 04:13:30;;;;;;;11.95;4.03;;;;;;;13.41;61.06;94633.63;4160176;28;20521;-56
2022/04/27 04:15:32;;;;;;;8.20;4.20;;;;;;;13.44;61.23;94639.34;4159946;28;20060;-56
2022/04/27 04:17:34;;;;;;;12.95;4.07;;;;;;;13.49;61.23;94642.25;4159722;28;20124;-56
2022/04/27 04:19:35;;;;;;;13.15;4.72;;;;;;;13.58;60.71;94650.09;4154639;28;20132;-53
2022/04/27 04:21:38;;;;;;;8.63;4.55;;;;;;;13.65;60.17;94646.53;4159532;28;20049;-60
2022/04/27 04:23:45;;;;;;;10.75;4.15;;;;;;;13.65;60.50;94651.81;4157803;28;20476;-54
2022/04/27 04:30:27;;;;;;;10.65;5.10;;;;;;;13.77;60.54;94639.03;4159748;28;20046;-55
2022/04/27 04:32:37;;;;;;;10.20;4.65;;;;;;;13.80;60.19;94643.13;4158786;28;20096;-53
2022/04/27 04:34:38;;;;;;;10.07;4.75;;;;;;;13.84;60.20;94650.47;4159474;28;20457;-53
2022/04/27 04:36:40;;;;;;;14.48;4.68;;;;;;;13.86;59.83;94656.38;4159572;28;20515;-52
2022/04/27 04:38:42;;;;;;;9.65;4.88;;;;;;;13.73;60.46;94654.38;4157613;28;20107;-53
2022/04/27 04:40:43;;;;;;;7.65;4.43;;;;;;;13.20;61.33;94663.19;4159446;28;20104;-54
2022/04/27 04:42:45;;;;;;;13.27;5.07;;;;;;;12.74;64.70;94658.72;4159156;28;20088;-55
2022/04/27 04:44:47;;;;;;;11.07;5.00;;;;;;;12.65;64.28;94660.59;4159710;28;20057;-55
2022/04/27 04:46:49;;;;;;;8.75;5.18;;;;;;;12.58;64.77;94667.50;4159404;28;20093;-55
2022/04/27 04:48:50;;;;;;;9.48;5.65;;;;;;;12.79;64.53;94660.84;4159359;28;20587;-57
2022/04/27 04:50:52;;;;;;;11.68;5.20;;;;;;;13.07;63.87;94664.59;4160098;28;20144;-59
2022/04/27 04:52:54;;;;;;;9.15;5.03;;;;;;;13.28;63.74;94663.97;4158259;28;20050;-51
2022/04/27 04:54:55;;;;;;;10.43;5.18;;;;;;;13.14;63.92;94669.16;4159366;28;20049;-53
2022/04/27 04:56:57;;;;;;;13.95;5.45;;;;;;;13.27;63.77;94666.75;4159651;28;20114;-54
2022/04/27 04:58:59;;;;;;;9.18;5.47;;;;;;;13.08;64.41;94682.00;4159253;28;20049;-52
2022/04/27 05:01:02;;;;;;;14.13;6.40;;;;;;;13.08;64.44;94671.50;4159059;28;20103;-52
2022/04/27 05:03:04;;;;;;;15.75;6.15;;;;;;;12.86;65.34;94673.13;4159039;28;20138;-51
2022/04/27 05:05:07;;;;;;;9.32;5.90;;;;;;;12.64;66.88;94679.16;4159159;28;20065;-54
2022/04/27 05:07:09;;;;;;;10.70;5.97;;;;;;;12.64;66.91;94685.22;4159029;28;20062;-53
2022/04/27 05:09:12;;;;;;;8.80;6.25;;;;;;;12.84;66.31;94680.38;4157712;28;20045;-54
2022/04/27 05:11:13;;;;;;;12.40;6.03;;;;;;;12.85;66.65;94686.44;4159329;28;20462;-55
2022/04/27 05:13:15;;;;;;;12.10;5.95;;;;;;;13.08;65.99;94681.19;4158956;28;20057;-54
2022/04/27 05:15:17;;;;;;;15.38;6.30;;;;;;;13.29;65.56;94685.81;4159009;28;20045;-57
2022/04/27 05:17:19;;;;;;;13.18;5.93;;;;;;;13.43;65.39;94674.53;4159242;28;20585;-52
2022/04/27 05:19:21;;;;;;;8.75;5.50;;;;;;;13.67;64.87;94675.34;4157660;28;20651;-53
2022/04/27 05:21:23;;;;;;;7.75;4.82;;;;;;;13.71;64.55;94677.44;4157280;28;20063;-53
2022/04/27 05:23:25;;;;;;;9.43;4.80;;;;;;;13.85;64.08;94678.47;4157188;28;20122;-53
2022/04/27 05:25:26;;;;;;;6.97;4.53;;;;;;;14.02;63.13;94670.38;4158498;28;20296;-52
2022/04/27 05:27:28;;;;;;;6.18;4.68;;;;;;;14.15;63.19;94667.94;4158814;28;20140;-51
2022/04/27 05:32:00;;;;;;;12.18;4.80;;;;;;;14.56;61.66;94679.84;4158511;28;20291;-53
2022/04/27 05:34:02;;;;;;;13.07;5.40;;;;;;;14.72;61.50;94675.19;4158740;28;20601;-52
2022/04/27 05:36:04;;;;;;;14.93;8.70;;;;;;;14.82;61.19;94679.34;4158681;28;20558;-53
2022/04/27 05:38:05;;;;;;;11.40;6.45;;;;;;;14.82;60.99;94679.34;4157432;28;20053;-52
2022/04/27 05:40:09;;;;;;;14.20;6.55;;;;;;;14.89;60.98;94677.63;4158844;28;20518;-53
2022/04/27 05:42:10;;;;;;;10.23;5.82;;;;;;;14.99;60.60;94677.28;4158708;28;20414;-51
2022/04/27 05:44:12;;;;;;;9.40;6.50;;;;;;;15.06;60.37;94675.56;4161447;28;20556;-57
2022/04/27 05:46:14;;;;;;;7.28;5.65;;;;;;;15.19;59.95;94677.53;4162390;28;20068;-55
2022/04/27 05:48:16;;;;;;;8.90;6.30;;;;;;;15.28;59.17;94686.94;4161601;28;20541;-53
2022/04/27 05:50:18;;;;;;;11.20;6.80;;;;;;;15.01;59.36;94684.00;4162205;28;20053;-55
2022/04/27 05:52:20;;;;;;;10.98;6.72;;;;;;;14.76;60.40;94688.00;4160697;28;20057;-54
2022/04/27 05:54:22;;;;;;;16.25;6.75;;;;;;;14.63;61.38;94688.66;4160963;28;20076;-53
2022/04/27 05:56:24;;;;;;;11.65;7.15;;;;;;;14.76;60.84;94686.19;4162347;28;20111;-56
2022/04/27 05:58:26;;;;;;;14.93;7.55;;;;;;;14.94;60.35;94681.31;4161654;28;20329;-55
2022/04/27 06:00:28;;;;;;;10.70;6.68;;;;;;;15.12;60.08;94680.91;4162079;28;20053;-57
2022/04/27 06:02:29;;;;;;;20.02;7.05;;;;;;;15.28;59.37;94679.03;4162012;28;20053;-55
2022/04/27 06:04:31;;;;;;;10.32;6.07;;;;;;;15.48;59.09;94680.00;4161667;28;20589;-56
2022/04/27 06:06:33;;;;;;;12.63;6.00;;;;;;;15.56;58.28;94679.88;4162048;28;20062;-56
2022/04/27 06:08:35;;;;;;;9.48;6.20;;;;;;;15.65;58.28;94680.56;4160724;28;20050;-54
2022/04/27 06:10:37;;;;;;;12.27;6.40;;;;;;;15.72;57.61;94686.78;4162573;28;20673;-55
2022/04/27 06:12:46;;;;;;;9.27;6.72;;;;;;;15.83;57.33;94685.44;4162051;28;20065;-55
2022/04/27 06:14:48;;;;;;;14.00;6.85;;;;;;;15.99;57.14;94681.66;4161915;28;20147;-55
2022/04/27 06:16:50;;;;;;;12.88;7.55;;;;;;;15.66;57.52;94682.22;4162078;28;20061;-52
2022/04/27 06:18:51;;;;;;;18.40;7.35;;;;;;;15.62;57.94;94682.78;4161596;28;20478;-51
2022/04/27 06:20:53;;;;;;;18.15;7.65;;;;;;;15.46;58.48;94684.66;4159146;28;20053;-55
2022/04/27 06:22:58;;;;;;;14.35;7.25;;;;;;;15.35;58.63;94679.91;4170058;28;20106;-54
2022/04/27 06:25:00;;;;;;;16.52;7.40;;;;;;;15.13;59.59;94687.00;4178609;28;20111;-55
2022/04/27 06:27:01;;;;;;;13.00;6.97;;;;;;;15.25;59.34;94684.66;4178228;28;20052;-55
2022/04/27 06:29:05;;;;;;;14.82;7.47;;;;;;;15.31;59.25;94683.91;4178167;28;20204;-53
2022/04/27 06:31:07;;;;;;;13.02;7.47;;;;;;;15.36;59.19;94689.47;4176670;28;20182;-53
2022/04/27 06:33:09;;;;;;;12.98;7.70;;;;;;;15.56;58.68;94679.88;4177676;28;20767;-55
2022/04/27 06:35:13;;;;;;;12.90;7.28;;;;;;;15.32;59.31;94686.38;4178031;28;20111;-49
2022/04/27 06:37:15;;;;;;;15.57;7.40;;;;;;;15.31;59.34;94684.72;4178106;28;20115;-53
2022/04/27 06:39:18;;;;;;;16.45;7.38;;;;;;;15.37;59.19;94683.16;4176594;28;20053;-56
2022/04/27 06:41:19;;;;;;;14.40;7.18;;;;;;;15.57;58.99;94684.16;4168963;28;20486;-55
2022/04/27 06:43:21;;;;;;;18.88;8.23;;;;;;;15.74;58.42;94682.13;4161088;28;20053;-50
2022/04/27 06:45:28;;;;;;;9.18;7.03;;;;;;;15.70;58.57;94687.91;4161410;28;20054;-54
2022/04/27 06:47:29;;;;;;;14.05;7.00;;;;;;;15.63;58.73;94681.78;4157778;28;20111;-54
2022/04/27 06:49:31;;;;;;;13.88;8.07;;;;;;;15.46;59.50;94686.50;4144662;28;20076;-56
2022/04/27 06:51:33;;;;;;;13.90;7.20;;;;;;;15.68;59.24;94682.84;4144879;28;20076;-52
2022/04/27 06:53:34;;;;;;;14.15;6.78;;;;;;;15.93;58.42;94683.25;4143627;28;20066;-55
2022/04/27 06:55:38;;;;;;;14.60;7.73;;;;;;;15.80;58.20;94675.22;4143594;28;20050;-55
2022/04/27 06:57:39;;;;;;;18.05;7.72;;;;;;;15.80;58.50;94677.06;4144639;28;20314;-55
2022/04/27 06:59:41;;;;;;;15.00;7.68;;;;;;;16.07;58.10;94675.44;4144975;28;21083;-54
2022/04/27 07:01:43;;;;;;;14.20;7.65;;;;;;;15.90;58.17;94680.19;4144605;28;20046;-54
2022/04/27 07:03:45;;;;;;;13.35;8.10;;;;;;;16.03;58.02;94679.47;4144273;28;20050;-55
2022/04/27 07:05:47;;;;;;;10.00;6.90;;;;;;;16.32;57.56;94671.28;4144390;28;20066;-53
2022/04/27 07:07:49;;;;;;;11.52;7.30;;;;;;;16.57;56.61;94678.75;4143970;28;20510;-53
2022/04/27 07:09:50;;;;;;;12.70;7.38;;;;;;;16.78;56.48;94677.84;4144186;28;20860;-55
2022/04/27 07:11:52;;;;;;;15.90;7.13;;;;;;;16.71;55.98;94671.69;4144330;28;20042;-55
2022/04/27 07:13:54;;;;;;;12.38;7.28;;;;;;;16.74;55.78;94673.94;4144397;28;20123;-54
2022/04/27 07:16:00;;;;;;;11.25;7.68;;;;;;;16.73;56.04;94674.94;4144668;28;20053;-57
2022/04/27 07:18:02;;;;;;;15.93;7.80;;;;;;;16.36;56.94;94674.38;4144527;28;20487;-55
2022/04/27 07:20:05;;;;;;;10.90;7.72;;;;;;;16.42;56.67;94678.06;4144612;28;20538;-54
2022/04/27 07:22:07;;;;;;;12.57;8.27;;;;;;;16.26;57.37;94676.53;4154629;28;20061;-54
2022/04/27 07:24:09;;;;;;;12.85;7.70;;;;;;;16.49;57.36;94681.56;4158988;28;20056;-53
2022/04/27 07:26:10;;;;;;;11.32;7.72;;;;;;;16.79;56.47;94677.63;4160452;28;20046;-53
2022/04/27 07:28:12;;;;;;;16.25;8.18;;;;;;;16.99;55.55;94669.78;4160685;28;20118;-56
2022/04/27 07:30:14;;;;;;;12.23;7.18;;;;;;;17.19;55.05;94672.47;4160536;28;20111;-53
2022/04/27 07:32:16;;;;;;;14.23;6.93;;;;;;;17.34;54.67;94668.84;4160926;28;20057;-53
2022/04/27 07:34:17;;;;;;;16.60;7.68;;;;;;;17.30;54.47;94670.28;4159997;28;20057;-54
2022/04/27 07:36:19;;;;;;;14.52;7.85;;;;;;;17.29;54.77;94673.91;4160470;28;20646;-53
2022/04/27 07:38:21;;;;;;;13.38;7.22;;;;;;;17.39;54.64;94671.69;4158972;28;20354;-54
2022/04/27 07:40:23;;;;;;;14.88;8.52;;;;;;;17.63;54.15;94678.25;4160174;28;20053;-55
2022/04/27 07:42:24;;;;;;;11.98;7.30;;;;;;;17.87;53.70;94682.13;4160195;28;20401;-53
2022/04/27 07:44:26;;;;;;;13.30;7.28;;;;;;;18.06;52.71;94672.53;4160629;28;20063;-57
2022/04/27 07:46:28;;;;;;;13.30;6.97;;;;;;;18.24;52.42;94673.75;4160135;28;20053;-56
2022/04/27 07:48:32;;;;;;;14.07;7.28;;;;;;;18.30;52.15;94673.72;4159850;28;20103;-55
2022/04/27 07:50:34;;;;;;;18.45;8.07;;;;;;;18.11;52.31;94669.28;4160484;28;20457;-55
2022/04/27 07:52:36;;;;;;;20.08;9.40;;;;;;;18.06;52.51;94671.75;4160175;28;20057;-53
2022/04/27 07:54:40;;;;;;;18.23;8.68;;;;;;;17.99;52.63;94672.56;4158709;28;20111;-56
2022/04/27 07:56:43;;;;;;;14.85;8.88;;;;;;;17.84;53.22;94669.31;4160331;28;20049;-58
2022/04/27 07:58:44;;;;;;;12.43;7.20;;;;;;;17.83;53.21;94664.19;4160363;28;20435;-54
2022/04/27 08:01:04;;;;;;;16.15;8.27;;;;;;;18.10;52.60;94667.66;4160310;28;20053;-56
2022/04/27 08:03:06;;;;;;;11.13;7.25;;;;;;;18.32;51.90;94666.38;4160049;28;20122;-54
2022/04/27 08:05:09;;;;;;;12.52;7.25;;;;;;;18.53;51.36;94672.47;4160346;28;20053;-55
2022/04/27 08:07:10;;;;;;;13.13;6.90;;;;;;;18.62;50.46;94660.59;4159624;28;20519;-54
2022/04/27 08:09:12;;;;;;;9.63;6.03;;;;;;;18.71;50.25;94664.63;4158827;28;20550;-52
2022/04/27 08:11:15;;;;;;;15.35;6.65;;;;;;;18.80;50.23;94662.59;4158700;28;20058;-55
2022/04/27 08:13:17;;;;;;;10.73;6.60;;;;;;;18.85;50.08;94664.63;4160038;28;20071;-56
2022/04/27 08:15:21;;;;;;;13.73;6.85;;;;;;;18.87;50.58;94668.69;4159951;28;20131;-57
2022/04/27 08:17:24;;;;;;;9.63;6.25;;;;;;;19.07;49.73;94667.78;4159960;28;20120;-53
2022/04/27 08:19:25;;;;;;;10.20;5.68;;;;;;;19.21;49.17;94658.72;4159433;28;20064;-53
2022/04/27 08:21:27;;;;;;;7.90;5.32;;;;;;;19.34;49.02;94660.47;4159537;28;20049;-54
2022/04/27 08:23:31;;;;;;;11.35;5.72;;;;;;;19.40;48.68;94654.28;4158279;28;20264;-55
2022/04/27 08:25:34;;;;;;;10.63;5.55;;;;;;;19.39;48.35;94653.47;4175987;28;20079;-54
2022/04/27 08:27:35;;;;;;;10.60;6.15;;;;;;;19.12;48.64;94658.16;4176157;28;20056;-54
2022/04/27 08:29:37;;;;;;;12.57;6.05;;;;;;;18.65;49.37;94654.03;4176377;28;20045;-51
2022/04/27 08:31:38;;;;;;;8.18;6.32;;;;;;;18.92;48.94;94647.63;4176347;28;20044;-53
2022/04/27 08:33:44;;;;;;;8.07;5.10;;;;;;;19.07;48.41;94652.66;4175910;28;20052;-57
2022/04/27 08:35:47;;;;;;;6.93;4.63;;;;;;;19.28;47.67;94642.75;4176092;28;20134;-55
2022/04/27 08:37:49;;;;;;;10.35;5.32;;;;;;;19.28;47.37;94648.06;4175506;28;20049;-55
2022/04/27 08:39:51;;;;;;;11.05;4.75;;;;;;;19.09;47.45;94647.13;4175450;28;20052;-55
2022/04/27 08:41:53;;;;;;;10.80;4.68;;;;;;;19.19;48.04;94645.66;4162732;28;20104;-53
2022/04/27 08:43:55;;;;;;;10.77;5.07;;;;;;;19.44;47.75;94643.03;4159396;28;20107;-53
2022/04/27 08:46:02;;;;;;;7.53;4.50;;;;;;;19.65;47.38;94644.50;4159649;28;20064;-53
2022/04/27 08:48:04;;;;;;;9.75;4.55;;;;;;;19.83;46.58;94642.94;4154501;28;20452;-57
2022/04/27 08:50:17;;;;;;;8.00;4.45;;;;;;;19.96;45.56;94634.03;4143196;28;20058;-54
2022/04/27 08:52:21;;;;;;;11.13;3.63;;;;;;;19.73;45.41;94634.69;4156554;28;20383;-54
2022/04/27 08:54:23;;;;;;;7.97;3.60;;;;;;;19.84;44.54;94626.78;4158224;28;20468;-53
2022/04/27 08:56:26;;;;;;;8.48;3.63;;;;;;;20.04;44.84;94626.59;4158102;28;20072;-54
2022/04/27 08:58:28;;;;;;;8.43;3.67;;;;;;;20.27;44.69;94627.81;4159332;28;20069;-56
2022/04/27 09:00:45;;;;;;;8.13;3.42;;;;;;;20.48;43.40;94628.41;4159447;28;20085;-55
2022/04/27 09:02:48;;;;;;;8.43;3.47;;;;;;;20.68;42.25;94622.91;4159237;28;20152;-55
2022/04/27 09:05:09;;;;;;;5.38;3.20;;;;;;;20.38;41.73;94627.06;4159348;28;20350;-57
2022/04/27 09:07:16;;;;;;;8.60;3.38;;;;;;;20.06;42.78;94618.41;4158834;28;20061;-54
2022/04/27 09:09:33;;;;;;;10.45;4.07;;;;;;;20.11;43.42;94617.75;4157890;28;20089;-55
2022/04/27 09:11:35;;;;;;;7.85;3.85;;;;;;;20.38;43.01;94616.44;4159243;28;20103;-57
2022/04/27 09:13:36;;;;;;;6.85;3.88;;;;;;;20.43;43.19;94615.75;4159062;28;20119;-53
2022/04/27 09:15:39;;;;;;;9.02;3.65;;;;;;;20.31;43.92;94613.03;4159364;28;20494;-55
2022/04/27 09:22:46;;;;;;;4.93;3.53;;;;;;;21.08;42.72;94615.22;4155498;28;20099;-56
2022/04/27 09:24:51;;;;;;;;;;;;;;;21.20;41.94;94599.25;4150563;28;20049;-57
2022/04/27 09:27:23;;;;;;;6.22;3.42;;;;;;;20.19;43.33;94604.16;4159416;28;20443;-54
2022/04/27 09:29:25;;;;;;;7.40;3.38;;;;;;;20.04;43.75;94605.31;4150882;28;20056;-57
2022/04/27 09:31:31;;;;;;;4.88;3.08;;;;;;;20.21;43.11;94594.13;4158767;28;20119;-52
2022/04/27 09:33:37;;;;;;;4.70;2.88;;;;;;;20.30;43.20;94599.97;4158507;28;20053;-53
2022/04/27 09:35:38;;;;;;;6.07;3.13;;;;;;;20.66;42.89;94591.97;4158842;28;20045;-55
2022/04/27 09:37:43;;;;;;;9.23;3.20;;;;;;;20.91;42.08;94591.06;4159171;28;20753;-52
2022/04/27 09:39:47;;;;;;;5.03;3.05;;;;;;;20.77;41.83;94585.09;4157672;28;20142;-51
2022/04/27 09:41:50;;;;;;;;;;;;;;;21.02;41.92;94586.81;4157800;28;20104;-52
2022/04/27 09:43:52;;;;;;;8.25;3.55;;;;;;;21.32;41.61;94583.31;4159023;28;19943;-59
2022/04/27 09:46:25;;;;;;;7.28;3.30;;;;;;;21.47;40.47;94587.19;4158871;28;20144;-55
2022/04/27 09:48:27;;;;;;;11.98;4.03;;;;;;;21.31;40.99;94587.00;4158604;28;20156;-57
2022/04/27 09:50:52;;;;;;;10.18;3.08;;;;;;;21.21;40.92;94584.91;4157914;28;20053;-56
2022/04/27 09:52:55;;;;;;;7.78;3.22;;;;;;;21.44;40.80;94581.50;4157531;28;20053;-55
2022/04/27 09:54:59;;;;;;;8.30;3.65;;;;;;;21.27;40.90;94574.16;4158814;28;20061;-52
2022/04/27 09:57:03;;;;;;;6.07;2.88;;;;;;;21.27;40.76;94574.16;4158764;28;20049;-56